Flight Track Log - Related Links

Times and Time Zones

All times are in EDT time to prevent confusion due to time zone crossing. See the N884WT flight status page for this flight to view local times or setup timezone preferences in your user account.

Time Position Orientation Groundspeed Altitude Reporting Facility
EDT Latitude Longitude Course Direction KTS MPH feet Rate Location/Type
Sun 02:11:31 PM 39.2911 -106.9292 259° West 276 318 11,600  Level Denver Center
Sun 02:12:32 PM 39.3161 -107.0428 286° West 317 365 13,800 2,607 Climbing Denver Center
Sun 02:13:33 PM 39.3625 -107.1544 298° West 354 407 16,900 2,832 Climbing Denver Center
Sun 02:14:37 PM 39.3397 -107.2986 258° West 376 433 19,700 2,304 Climbing Denver Center
Sun 02:15:38 PM 39.3158 -107.4331 257° West 396 456 21,700 2,262 Climbing Denver Center
Sun 02:16:39 PM 39.2853 -107.5989 257° West 420 483 24,300 2,160 Climbing Denver Center
Sun 02:17:00 PM 39.2803 -107.6616 259° West  Level FlightAware Approximate
Sun 02:17:43 PM 39.2569 -107.7492 256° West 443 510 26,200  Level Denver Center
Sun 02:18:45 PM 39.2289 -107.9042 257° West 459 528 28,500 2,146 Climbing Denver Center
Sun 02:19:46 PM 39.1944 -108.0847 256° West 463 533 30,600 2,177 Climbing Denver Center
Sun 02:20:49 PM 39.1600 -108.2403 254° West 468 539 33,000 2,274 Climbing Denver Center
Sun 02:21:50 PM 39.0694 -108.3953 233° Southwest 483 556 35,300 2,164 Climbing Denver Center
Sun 02:22:51 PM 38.9869 -108.5247 231° Southwest 486 559 37,400 2,112 Climbing Denver Center
Sun 02:23:55 PM 38.8914 -108.6711 230° Southwest 480 552 39,700 1,920 Climbing Denver Center
Sun 02:24:56 PM 38.8106 -108.7947 230° Southwest 472 543 41,400 1,536 Climbing Denver Center
Sun 02:26:00 PM 38.7175 -108.9381 230° Southwest 469 540 42,900 762 Climbing Denver Center
Sun 02:27:02 PM 38.6372 -109.0606 230° Southwest 468 539 43,000 49 Climbing Denver Center
Sun 02:28:02 PM 38.5589 -109.1808 230° Southwest 463 533 43,000  Level Denver Center
Sun 02:29:04 PM 38.4644 -109.3225 230° Southwest 467 537 43,000  Level Denver Center
Sun 02:30:08 PM 38.3839 -109.4450 230° Southwest 468 539 43,000  Level Denver Center
Sun 02:31:10 PM 38.2906 -109.5828 229° Southwest 463 533 43,000  Level Denver Center
Sun 02:32:11 PM 38.2092 -109.7017 229° Southwest 462 532 43,000  Level Denver Center
Sun 02:33:12 PM 38.1150 -109.8444 230° Southwest 468 539 43,000  Level Denver Center
Sun 02:34:17 PM 38.0253 -109.9756 229° Southwest 468 539 43,000  Level Denver Center
Sun 02:35:17 PM 37.9456 -110.0944 230° Southwest 467 537 43,000  Level Denver Center
Sun 02:36:20 PM 37.8514 -110.2347 230° Southwest 467 537 43,000  Level Denver Center
Sun 02:37:23 PM 37.7706 -110.3536 229° Southwest 467 537 43,000  Level Denver Center
Sun 02:38:24 PM 37.6742 -110.4931 229° Southwest 468 539 43,000  Level Denver Center
Sun 02:39:25 PM 37.5956 -110.6064 229° Southwest 470 541 43,000  Level Denver Center
Sun 02:40:28 PM 37.5089 -110.7317 229° Southwest 471 542 43,000  Level Denver Center
Sun 02:41:29 PM 37.4050 -110.8811 229° Southwest 471 542 43,000  Level Denver Center
Sun 02:42:33 PM 37.3194 -111.0042 229° Southwest 470 541 43,000  Level Denver Center
Sun 02:43:34 PM 37.2328 -111.1278 229° Southwest 470 541 43,000  Level Denver Center
Sun 02:44:37 PM 37.1469 -111.2522 229° Southwest 471 542 43,000  Level Denver Center
Sun 02:45:38 PM 37.0597 -111.3750 228° Southwest 471 542 43,000  Level Denver Center
Sun 02:46:41 PM 36.9767 -111.4958 229° Southwest 462 532 43,000  Level Denver Center
Sun 02:47:45 PM 36.8906 -111.6169 228° Southwest 460 529 43,000  Level Denver Center
Sun 02:48:45 PM 36.7828 -111.7647 228° Southwest 470 541 43,000  Level Denver Center
Sun 02:49:46 PM 36.6953 -111.8875 228° Southwest 473 544 43,000  Level Denver Center
Sun 02:50:49 PM 36.6064 -112.0108 228° Southwest 473 544 43,000  Level Denver Center
Sun 02:51:51 PM 36.5194 -112.1311 228° Southwest 471 542 43,000  Level Denver Center
Sun 02:53:14 PM 36.3981 -112.2983 228° Southwest 465 535 43,000  Level Los Angeles Center
Sun 02:54:16 PM 36.3122 -112.4147 228° Southwest 459 528 43,000  Level Los Angeles Center
Sun 02:55:18 PM 36.2264 -112.5344 228° Southwest 463 533 43,000  Level Los Angeles Center
Sun 02:56:20 PM 36.1222 -112.6747 227° Southwest 461 531 43,000  Level Los Angeles Center
Sun 02:57:23 PM 36.0381 -112.7922 228° Southwest 458 527 43,000  Level Los Angeles Center
Sun 02:58:25 PM 35.9481 -112.9125 227° Southwest 461 531 43,000  Level Los Angeles Center
Sun 02:59:27 PM 35.8625 -113.0289 228° Southwest 462 532 43,000  Level Los Angeles Center
Sun 03:00:29 PM 35.7764 -113.1422 227° Southwest 457 526 43,000  Level Los Angeles Center
Sun 03:01:31 PM 35.6822 -113.2689 228° Southwest 457 526 43,000  Level Los Angeles Center
Sun 03:02:33 PM 35.5903 -113.3917 227° Southwest 456 525 43,000  Level Los Angeles Center
Sun 03:03:35 PM 35.5053 -113.5050 227° Southwest 456 525 43,000  Level Los Angeles Center
Sun 03:04:37 PM 35.4208 -113.6169 227° Southwest 455 524 43,000  Level Los Angeles Center
Sun 03:05:39 PM 35.3361 -113.7286 227° Southwest 452 520 43,000  Level Los Angeles Center
Sun 03:06:41 PM 35.2514 -113.8411 227° Southwest 452 520 43,000  Level Los Angeles Center
Sun 03:07:44 PM 35.1500 -113.9744 227° Southwest 454 522 43,000 -576 Level Los Angeles Center
Sun 03:08:46 PM 35.0644 -114.0864 227° Southwest 451 519 41,800 -1,790 Descending Los Angeles Center
Sun 03:09:48 PM 34.9744 -114.2019 226° Southwest 462 532 39,300 -2,419 Descending Los Angeles Center
Sun 03:10:50 PM 34.8839 -114.3200 227° Southwest 472 543 36,800 -2,419 Descending Los Angeles Center
Sun 03:11:52 PM 34.7950 -114.4361 227° Southwest 470 541 34,300 -1,355 Descending Los Angeles Center
Sun 03:12:54 PM 34.6914 -114.5864 230° Southwest 480 552 34,000 -145 Descending Los Angeles Center
Sun 03:13:56 PM 34.6083 -114.7111 231° Southwest 473 544 34,000  Level Los Angeles Center
Sun 03:14:58 PM 34.5094 -114.8189 222° Southwest 477 549 34,000 -97 Level Los Angeles Center
Sun 03:16:00 PM 34.4078 -114.9236 220° Southwest 480 552 33,800 -816 Descending Los Angeles Center
Sun 03:17:03 PM 34.3172 -115.0403 227° Southwest 477 549 32,300 -1,440 Descending Los Angeles Center
Sun 03:18:05 PM 34.2414 -115.1725 235° Southwest 479 551 30,800 -1,597 Descending Los Angeles Center
Sun 03:19:07 PM 34.1442 -115.3283 233° Southwest 483 556 29,000 -1,597 Descending Los Angeles Center
Sun 03:20:09 PM 34.0650 -115.4597 234° Southwest 486 559 27,500 -1,452 Descending Los Angeles Center
Sun 03:21:11 PM 33.9839 -115.5900 233° Southwest 486 559 26,000 -1,452 Descending Los Angeles Center
Sun 03:22:13 PM 33.9044 -115.7175 233° Southwest 479 551 24,500 -1,839 Descending Los Angeles Center
Sun 03:23:15 PM 33.8269 -115.8442 234° Southwest 472 543 22,200 -2,516 Descending Los Angeles Center
Sun 03:24:17 PM 33.7531 -115.9625 233° Southwest 453 521 19,300 -2,592 Descending Los Angeles Center
Sun 03:25:20 PM 33.6672 -116.0983 233° Southwest 431 496 16,800 -2,016 Descending Los Angeles Center
Sun 03:26:22 PM 33.6022 -116.2125 236° Southwest 419 482 15,100 -1,355 Descending Los Angeles Center
Sun 03:27:24 PM 33.5436 -116.3281 239° Southwest 411 473 14,000 -532 Descending Los Angeles Center
Sun 03:28:26 PM 33.4861 -116.4436 239° Southwest 408 470 14,000 -387 Level Los Angeles Center
Sun 03:29:28 PM 33.4286 -116.5583 239° Southwest 406 467 13,200 -968 Descending Los Angeles Center
Sun 03:30:30 PM 33.3603 -116.6933 239° Southwest 400 460 12,000 -1,645 Descending Los Angeles Center
Sun 03:31:32 PM 33.3053 -116.8003 238° Southwest 388 447 9,800 -1,935 Descending Los Angeles Center
Sun 03:32:34 PM 33.2622 -116.8858 239° Southwest 319 367 8,000 -1,776 Descending Los Angeles Center
Sun 03:33:37 PM 33.2233 -116.9633 239° Southwest 286 329 6,100 -1,440 Descending Los Angeles Center
Sun 03:34:39 PM 33.1906 -117.0258 238° Southwest 247 284 5,000 -1,258 Descending Los Angeles Center
Sun 03:35:41 PM 33.1597 -117.0961 242° Southwest 221 254 3,500 -1,230 Descending Los Angeles Center
Sun 03:36:41 PM 33.1500 -117.1500 258° West 161 185 2,500 -950 Descending Southern California TRACON
Sun 03:37:41 PM 33.1500 -117.2000 270° West 149 171 1,600 -850 Descending Southern California TRACON
Sun 03:38:41 PM 33.1333 -117.2500 248° West 151 174 800 -800 Descending Southern California TRACON

Login

Don't have an account? Register now (free) for customized features, flight alerts, and more!